createdAt,value
2023-03-30T00:01:18.888Z,100.00
2023-03-30T00:03:50.059Z,100.00
2023-03-30T00:06:23.455Z,100.00
2023-03-30T00:09:00.647Z,100.00
2023-03-30T00:11:34.112Z,100.00
2023-03-30T00:14:02.344Z,100.00
2023-03-30T00:16:31.765Z,100.00
2023-03-30T00:18:58.901Z,100.00
2023-03-30T00:21:28.287Z,100.00
2023-03-30T00:23:57.378Z,100.00
2023-03-30T00:26:24.666Z,100.00
2023-03-30T00:28:52.492Z,100.00
2023-03-30T00:31:20.512Z,100.00
2023-03-30T00:33:47.986Z,100.00
2023-03-30T00:36:16.578Z,100.00
2023-03-30T00:38:48.434Z,100.00
2023-03-30T00:41:18.338Z,100.00
2023-03-30T00:44:51.917Z,100.00
2023-03-30T00:47:19.819Z,100.00
2023-03-30T00:49:47.488Z,100.00
2023-03-30T00:52:19.321Z,100.00
2023-03-30T00:54:47.605Z,100.00
2023-03-30T00:57:17.670Z,100.00
2023-03-30T00:59:45.289Z,100.00
2023-03-30T01:02:15.462Z,100.00
2023-03-30T01:04:45.835Z,100.00
2023-03-30T01:07:13.645Z,100.00
2023-03-30T01:09:42.961Z,100.00
2023-03-30T01:12:11.228Z,100.00
2023-03-30T01:14:42.299Z,100.00
2023-03-30T01:17:33.098Z,100.00
2023-03-30T01:20:20.896Z,100.00
2023-03-30T01:23:13.580Z,100.00
2023-03-30T01:26:11.561Z,100.00
2023-03-30T01:29:00.539Z,100.00
2023-03-30T01:32:03.240Z,100.00
2023-03-30T01:34:48.250Z,100.00
2023-03-30T01:37:37.374Z,100.00
2023-03-30T01:40:13.201Z,100.00
2023-03-30T01:42:57.974Z,100.00
2023-03-30T01:45:45.700Z,100.00
2023-03-30T01:48:39.444Z,100.00
2023-03-30T01:51:13.140Z,100.00
2023-03-30T01:54:08.410Z,100.00
2023-03-30T01:56:57.127Z,100.00
2023-03-30T01:59:37.551Z,100.00
2023-03-30T02:02:07.247Z,100.00
2023-03-30T02:04:42.132Z,100.00
2023-03-30T02:07:24.192Z,100.00
2023-03-30T02:09:55.045Z,100.00
2023-03-30T02:12:23.844Z,100.00
2023-03-30T02:14:52.913Z,100.00
2023-03-30T02:17:27.236Z,100.00
2023-03-30T02:20:00.425Z,100.00
2023-03-30T02:22:30.630Z,100.00
2023-03-30T02:24:58.574Z,100.00
2023-03-30T02:27:27.748Z,100.00
2023-03-30T02:29:57.029Z,100.00
2023-03-30T02:32:37.148Z,100.00
2023-03-30T02:35:26.770Z,100.00
2023-03-30T02:38:35.561Z,100.00
2023-03-30T02:41:31.232Z,100.00
2023-03-30T02:44:22.458Z,100.00
2023-03-30T02:47:00.450Z,100.00
2023-03-30T02:49:43.581Z,100.00
2023-03-30T02:52:57.526Z,100.00
2023-03-30T02:55:51.388Z,100.00
2023-03-30T02:58:47.570Z,100.00
2023-03-30T03:01:47.899Z,100.00
2023-03-30T03:04:15.689Z,100.00
2023-03-30T03:06:43.294Z,100.00
2023-03-30T03:09:10.262Z,100.00
2023-03-30T03:11:37.229Z,100.00
2023-03-30T03:14:04.382Z,100.00
2023-03-30T03:16:34.675Z,100.00
2023-03-30T03:19:04.512Z,100.00
2023-03-30T03:21:31.359Z,100.00
2023-03-30T03:23:58.540Z,100.00
2023-03-30T03:26:27.071Z,100.00
2023-03-30T03:28:54.197Z,100.00
2023-03-30T03:31:22.156Z,100.00
2023-03-30T03:33:50.616Z,100.00
2023-03-30T03:36:25.135Z,100.00
2023-03-30T03:38:52.461Z,100.00
2023-03-30T03:41:22.046Z,100.00
2023-03-30T03:43:53.702Z,100.00
2023-03-30T03:46:21.128Z,100.00
2023-03-30T03:48:50.260Z,100.00
2023-03-30T03:51:17.368Z,100.00
2023-03-30T03:53:44.312Z,100.00
2023-03-30T03:56:14.906Z,100.00
2023-03-30T03:58:46.604Z,100.00
2023-03-30T04:01:14.611Z,100.00
2023-03-30T04:03:44.293Z,100.00
2023-03-30T04:06:14.117Z,100.00
2023-03-30T04:08:46.204Z,100.00
2023-03-30T04:11:17.717Z,100.00
2023-03-30T04:13:48.197Z,100.00
2023-03-30T04:16:15.570Z,100.00
2023-03-30T04:18:43.842Z,100.00
2023-03-30T04:21:13.244Z,100.00
2023-03-30T04:23:45.602Z,100.00
2023-03-30T04:26:15.881Z,100.00
2023-03-30T04:28:43.109Z,100.00
2023-03-30T04:31:11.003Z,100.00
2023-03-30T04:33:52.080Z,100.00
2023-03-30T04:36:20.774Z,100.00
2023-03-30T04:39:00.557Z,100.00
2023-03-30T04:41:33.250Z,100.00
2023-03-30T04:44:07.373Z,100.00
2023-03-30T04:46:34.389Z,100.00
2023-03-30T04:49:01.833Z,100.00
2023-03-30T04:51:31.833Z,100.00
2023-03-30T04:53:58.809Z,100.00
2023-03-30T04:56:28.167Z,100.00
2023-03-30T04:58:56.103Z,100.00
2023-03-30T05:01:23.175Z,100.00
2023-03-30T05:03:50.297Z,100.00
2023-03-30T05:06:19.692Z,100.00
2023-03-30T05:08:48.940Z,100.00
2023-03-30T05:11:16.069Z,100.00
2023-03-30T05:13:43.128Z,100.00
2023-03-30T05:16:10.495Z,100.00
2023-03-30T05:18:39.701Z,100.00
2023-03-30T05:21:07.138Z,100.00
2023-03-30T05:23:34.093Z,100.00
2023-03-30T05:26:04.714Z,100.00
2023-03-30T05:28:32.591Z,100.00
2023-03-30T05:31:00.226Z,100.00
2023-03-30T05:33:30.220Z,100.00
2023-03-30T05:35:57.328Z,100.00
2023-03-30T05:38:24.356Z,100.00
2023-03-30T05:40:55.014Z,100.00
2023-03-30T05:43:22.282Z,100.00
2023-03-30T05:45:49.196Z,100.00
2023-03-30T05:48:18.820Z,100.00
2023-03-30T05:50:48.643Z,100.00
2023-03-30T05:53:16.243Z,100.00
2023-03-30T05:55:48.548Z,100.00
2023-03-30T05:58:16.956Z,100.00
2023-03-30T06:00:45.188Z,100.00
2023-03-30T06:03:12.752Z,100.00
2023-03-30T06:05:43.863Z,100.00
2023-03-30T06:08:12.063Z,100.00
2023-03-30T06:10:39.378Z,100.00
2023-03-30T06:13:09.206Z,100.00
2023-03-30T06:15:38.330Z,99.77
2023-03-30T06:18:09.956Z,97.96
2023-03-30T06:20:39.229Z,97.72
2023-03-30T06:23:06.298Z,96.85
2023-03-30T06:25:33.859Z,97.79
2023-03-30T06:28:03.371Z,96.84
2023-03-30T06:30:30.490Z,97.91
2023-03-30T06:32:57.496Z,97.26
2023-03-30T06:35:27.328Z,97.25
2023-03-30T06:37:54.293Z,97.76
2023-03-30T06:40:23.910Z,96.82
2023-03-30T06:42:53.230Z,96.91
2023-03-30T06:45:23.450Z,96.74
2023-03-30T06:47:50.441Z,97.34
2023-03-30T06:50:17.613Z,95.88
2023-03-30T06:52:44.593Z,93.98
2023-03-30T06:55:17.155Z,94.71
2023-03-30T06:57:44.121Z,93.71
2023-03-30T07:00:15.319Z,92.69
2023-03-30T07:02:43.385Z,91.09
2023-03-30T07:05:11.877Z,89.94
2023-03-30T07:07:41.382Z,89.26
2023-03-30T07:10:12.022Z,88.93
2023-03-30T07:12:40.932Z,89.01
2023-03-30T07:15:09.142Z,88.02
2023-03-30T07:17:37.191Z,86.58
2023-03-30T07:20:06.121Z,83.21
2023-03-30T07:22:33.237Z,81.01
2023-03-30T07:25:00.203Z,77.35
2023-03-30T07:27:27.470Z,71.61
2023-03-30T07:29:55.086Z,72.99
2023-03-30T07:32:22.782Z,74.51
2023-03-30T07:34:49.913Z,79.18
2023-03-30T07:37:20.629Z,81.18
2023-03-30T07:39:48.821Z,82.76
2023-03-30T07:42:16.043Z,84.02
2023-03-30T07:44:45.825Z,84.10
2023-03-30T07:47:12.892Z,83.42
2023-03-30T07:49:44.730Z,83.49
2023-03-30T07:52:12.016Z,84.40
2023-03-30T07:54:39.389Z,86.27
2023-03-30T07:57:06.397Z,86.51
2023-03-30T07:59:36.065Z,85.37
2023-03-30T08:02:04.627Z,85.36
2023-03-30T08:04:31.925Z,84.77
2023-03-30T08:07:01.601Z,84.89
2023-03-30T08:09:28.609Z,84.85
2023-03-30T08:11:58.274Z,83.69
2023-03-30T08:14:27.408Z,83.37
2023-03-30T08:16:55.289Z,84.07
2023-03-30T08:19:27.125Z,83.03
2023-03-30T08:21:57.050Z,82.10
2023-03-30T08:24:24.447Z,83.94
2023-03-30T08:26:53.540Z,86.26
2023-03-30T08:29:21.185Z,87.94
2023-03-30T08:31:48.316Z,88.28
2023-03-30T08:34:15.364Z,84.72
2023-03-30T08:36:42.813Z,82.21
2023-03-30T08:39:10.936Z,80.78
2023-03-30T08:42:08.378Z,80.99
2023-03-30T08:44:43.541Z,79.30
2023-03-30T08:47:18.198Z,79.12
2023-03-30T08:49:58.858Z,78.71
2023-03-30T08:52:30.931Z,76.06
2023-03-30T08:55:01.493Z,73.86
2023-03-30T08:57:51.301Z,75.20
2023-03-30T09:00:30.912Z,75.63
2023-03-30T09:03:46.251Z,76.77
2023-03-30T09:06:40.615Z,73.80
2023-03-30T09:09:15.251Z,69.50
2023-03-30T09:11:43.094Z,67.87
2023-03-30T09:14:42.550Z,65.80
2023-03-30T09:17:18.279Z,62.48
2023-03-30T09:19:51.684Z,60.07
2023-03-30T09:22:20.365Z,57.98
2023-03-30T09:24:52.724Z,59.16
2023-03-30T09:27:45.753Z,61.13
2023-03-30T09:30:34.941Z,62.66
2023-03-30T09:33:28.197Z,67.18
2023-03-30T09:36:19.322Z,66.67
2023-03-30T09:38:50.395Z,64.02
2023-03-30T09:41:46.071Z,62.13
2023-03-30T09:44:38.455Z,59.06
2023-03-30T09:47:39.024Z,57.81
2023-03-30T09:50:26.761Z,55.02
2023-03-30T09:53:02.135Z,59.51
2023-03-30T09:55:32.885Z,62.91
2023-03-30T09:58:15.523Z,62.93
2023-03-30T10:00:42.462Z,62.32
2023-03-30T10:03:21.882Z,60.22
2023-03-30T10:06:13.407Z,61.44
2023-03-30T10:08:58.754Z,62.01
2023-03-30T10:11:31.770Z,63.42
2023-03-30T10:13:59.644Z,66.67
2023-03-30T10:16:34.358Z,63.85
2023-03-30T10:19:18.987Z,63.68
2023-03-30T10:21:46.974Z,65.53
2023-03-30T10:24:32.166Z,65.28
2023-03-30T10:27:13.710Z,62.85
2023-03-30T10:29:46.900Z,62.23
2023-03-30T10:32:31.768Z,62.65
2023-03-30T10:35:02.147Z,63.14
2023-03-30T10:37:44.964Z,59.38
2023-03-30T10:40:21.054Z,60.03
2023-03-30T10:42:55.636Z,59.63
2023-03-30T10:45:33.297Z,56.59
2023-03-30T10:48:34.301Z,59.24
2023-03-30T10:52:21.752Z,61.95
2023-03-30T10:55:17.043Z,66.84
2023-03-30T10:57:54.578Z,70.90
2023-03-30T11:00:28.863Z,69.75
2023-03-30T11:03:44.820Z,65.22
2023-03-30T11:06:26.423Z,66.15
2023-03-30T11:08:57.855Z,66.42
2023-03-30T11:11:40.649Z,65.75
2023-03-30T11:15:02.202Z,58.54
2023-03-30T11:17:29.948Z,50.51
2023-03-30T11:20:06.011Z,47.94
2023-03-30T11:22:47.591Z,46.52
2023-03-30T11:25:59.200Z,39.53
2023-03-30T11:28:54.729Z,35.81
2023-03-30T11:31:47.505Z,34.79
2023-03-30T11:34:49.601Z,37.09
2023-03-30T11:37:32.232Z,36.86
2023-03-30T11:40:28.580Z,35.15
2023-03-30T11:42:58.500Z,39.54
2023-03-30T11:45:37.837Z,41.35
2023-03-30T11:48:33.837Z,38.04
2023-03-30T11:51:04.010Z,36.65
2023-03-30T11:53:56.651Z,37.15
2023-03-30T11:56:53.166Z,35.02
2023-03-30T12:00:03.736Z,31.80
2023-03-30T12:03:02.124Z,29.14
2023-03-30T12:05:43.295Z,26.58
2023-03-30T12:08:25.516Z,24.90
2023-03-30T12:11:04.223Z,26.33
2023-03-30T12:13:44.502Z,25.68
2023-03-30T12:16:37.987Z,26.40
2023-03-30T12:19:22.397Z,26.52
2023-03-30T12:22:01.466Z,29.48
2023-03-30T12:24:46.528Z,31.75
2023-03-30T12:27:13.700Z,35.59
2023-03-30T12:30:02.619Z,38.83
2023-03-30T12:32:31.678Z,46.87
2023-03-30T12:34:58.905Z,62.94
2023-03-30T12:37:37.701Z,67.11
2023-03-30T12:40:22.100Z,72.63
2023-03-30T12:43:19.457Z,70.07
2023-03-30T12:46:42.858Z,71.22
2023-03-30T12:49:28.198Z,72.82
2023-03-30T12:52:13.750Z,72.11
2023-03-30T12:54:50.285Z,70.76
2023-03-30T12:57:54.075Z,64.31
2023-03-30T13:01:09.656Z,67.36
2023-03-30T13:03:59.003Z,59.35
2023-03-30T13:07:18.140Z,54.27
2023-03-30T13:09:56.218Z,53.26
2023-03-30T13:12:40.323Z,46.25
2023-03-30T13:15:16.235Z,44.18
2023-03-30T13:18:32.087Z,48.58
2023-03-30T13:21:19.260Z,54.46
2023-03-30T13:24:02.281Z,57.21
2023-03-30T13:26:43.482Z,59.11
2023-03-30T13:29:18.765Z,61.54
2023-03-30T13:32:20.126Z,60.57
2023-03-30T13:35:27.950Z,56.87
2023-03-30T13:38:44.195Z,45.63
2023-03-30T13:41:26.408Z,43.86
2023-03-30T13:44:41.338Z,43.29
2023-03-30T13:47:29.778Z,44.69
2023-03-30T13:50:11.873Z,44.64
2023-03-30T13:52:47.397Z,46.71
2023-03-30T13:55:39.993Z,48.56
2023-03-30T13:58:22.274Z,49.45
2023-03-30T14:01:03.082Z,50.84
2023-03-30T14:03:41.679Z,50.84
2023-03-30T14:06:17.643Z,51.29
2023-03-30T14:08:48.452Z,50.83
2023-03-30T14:11:24.404Z,50.52
2023-03-30T14:13:53.862Z,49.92
2023-03-30T14:16:27.920Z,49.15
2023-03-30T14:19:33.730Z,49.20
2023-03-30T14:22:14.109Z,50.38
2023-03-30T14:25:04.846Z,51.21
2023-03-30T14:27:41.298Z,48.76
2023-03-30T14:30:31.763Z,44.02
2023-03-30T14:33:11.741Z,41.26
2023-03-30T14:35:43.898Z,39.33
2023-03-30T14:38:26.721Z,38.91
2023-03-30T14:40:55.294Z,38.14
2023-03-30T14:43:30.868Z,36.90
2023-03-30T14:46:06.143Z,35.47
2023-03-30T14:48:42.231Z,35.33
2023-03-30T14:51:28.853Z,34.63
2023-03-30T14:53:58.714Z,36.38
2023-03-30T14:56:28.074Z,35.04
2023-03-30T14:58:58.740Z,35.89
2023-03-30T15:01:34.994Z,38.33
2023-03-30T15:04:15.836Z,40.90
2023-03-30T15:06:46.050Z,41.77
2023-03-30T15:09:23.158Z,43.27
2023-03-30T15:12:02.316Z,42.97
2023-03-30T15:14:38.353Z,43.58
2023-03-30T15:17:22.804Z,42.93
2023-03-30T15:19:54.161Z,41.75
2023-03-30T15:22:41.674Z,40.81
2023-03-30T15:25:15.529Z,39.66
2023-03-30T15:28:11.720Z,41.78
2023-03-30T15:30:43.828Z,43.36
2023-03-30T15:33:29.922Z,43.29
2023-03-30T15:36:14.205Z,43.58
2023-03-30T15:38:51.720Z,43.64
2023-03-30T15:41:43.603Z,43.59
2023-03-30T15:44:16.078Z,44.79
2023-03-30T15:46:50.439Z,44.76
2023-03-30T15:49:25.284Z,45.56
2023-03-30T15:52:17.385Z,44.91
2023-03-30T15:54:51.863Z,46.05
2023-03-30T15:57:29.054Z,45.86
2023-03-30T16:00:05.586Z,46.44
2023-03-30T16:02:32.567Z,46.30
2023-03-30T16:05:07.779Z,46.99
2023-03-30T16:07:36.289Z,46.70
2023-03-30T16:10:06.648Z,47.15
2023-03-30T16:12:34.776Z,47.25
2023-03-30T16:15:04.291Z,47.88
2023-03-30T16:17:34.891Z,48.79
2023-03-30T16:20:03.254Z,49.04
2023-03-30T16:22:31.934Z,48.56
2023-03-30T16:24:58.990Z,49.42
2023-03-30T16:27:25.983Z,50.77
2023-03-30T16:29:57.693Z,51.03
2023-03-30T16:32:32.139Z,51.93
2023-03-30T16:35:02.753Z,52.47
2023-03-30T16:37:31.687Z,53.41
2023-03-30T16:39:58.823Z,53.22
2023-03-30T16:42:27.490Z,53.85
2023-03-30T16:44:54.676Z,53.91
2023-03-30T16:47:21.793Z,54.36
2023-03-30T16:49:51.790Z,54.38
2023-03-30T16:52:18.770Z,54.42
2023-03-30T16:54:45.742Z,54.90
2023-03-30T16:57:15.770Z,55.21
2023-03-30T16:59:43.153Z,56.25
2023-03-30T17:02:16.324Z,58.40
2023-03-30T17:04:49.875Z,58.00
2023-03-30T17:07:16.827Z,58.86
2023-03-30T17:09:43.766Z,58.64
2023-03-30T17:12:13.173Z,58.54
2023-03-30T17:14:42.946Z,59.41
2023-03-30T17:17:10.079Z,61.94
2023-03-30T17:19:36.988Z,64.15
2023-03-30T17:22:06.390Z,65.27
2023-03-30T17:24:33.330Z,67.25
2023-03-30T17:27:01.330Z,68.13
2023-03-30T17:29:28.174Z,68.65
2023-03-30T17:31:57.400Z,70.09
2023-03-30T17:34:24.566Z,71.89
2023-03-30T17:36:51.532Z,72.15
2023-03-30T17:39:21.091Z,71.26
2023-03-30T17:41:48.081Z,71.86
2023-03-30T17:44:17.279Z,71.74
2023-03-30T17:46:44.375Z,71.86
2023-03-30T17:49:17.258Z,72.59
2023-03-30T17:51:44.411Z,72.55
2023-03-30T17:54:11.393Z,72.91
2023-03-30T17:56:38.387Z,73.44
2023-03-30T17:59:13.085Z,74.24
2023-03-30T18:01:40.214Z,75.51
2023-03-30T18:04:09.658Z,75.87
2023-03-30T18:06:36.879Z,76.68
2023-03-30T18:09:16.496Z,76.21
2023-03-30T18:11:48.126Z,77.14
2023-03-30T18:14:15.332Z,75.83
2023-03-30T18:16:45.966Z,76.18
2023-03-30T18:19:17.536Z,75.27
2023-03-30T18:21:44.734Z,75.30
2023-03-30T18:24:15.303Z,75.85
2023-03-30T18:26:43.628Z,76.20
2023-03-30T18:29:21.991Z,79.56
2023-03-30T18:31:51.924Z,80.08
2023-03-30T18:34:23.413Z,80.34
2023-03-30T18:36:52.721Z,79.96
2023-03-30T18:39:20.178Z,79.56
2023-03-30T18:41:50.048Z,79.79
2023-03-30T18:44:21.826Z,79.00
2023-03-30T18:46:51.925Z,78.38
2023-03-30T18:49:22.542Z,78.59
2023-03-30T18:51:52.614Z,78.98
2023-03-30T18:54:19.943Z,78.22
2023-03-30T18:56:48.078Z,78.09
2023-03-30T18:59:15.311Z,77.81
2023-03-30T19:01:45.935Z,78.79
2023-03-30T19:04:15.738Z,78.22
2023-03-30T19:06:44.510Z,79.02
2023-03-30T19:09:11.850Z,78.90
2023-03-30T19:11:41.410Z,78.43
2023-03-30T19:14:12.166Z,78.68
2023-03-30T19:16:44.185Z,78.60
2023-03-30T19:19:14.895Z,78.63
2023-03-30T19:21:43.157Z,80.06
2023-03-30T19:24:14.052Z,80.44
2023-03-30T19:26:41.445Z,80.59
2023-03-30T19:29:08.335Z,81.70
2023-03-30T19:31:36.621Z,83.18
2023-03-30T19:34:03.694Z,83.48
2023-03-30T19:36:33.256Z,83.94
2023-03-30T19:39:02.614Z,84.12
2023-03-30T19:41:31.704Z,84.93
2023-03-30T19:44:02.074Z,83.96
2023-03-30T19:46:31.560Z,84.26
2023-03-30T19:49:03.240Z,84.87
2023-03-30T19:51:34.766Z,84.53
2023-03-30T19:54:01.804Z,83.54
2023-03-30T19:56:31.891Z,83.08
2023-03-30T19:59:01.556Z,83.72
2023-03-30T20:01:28.833Z,83.79
2023-03-30T20:03:56.287Z,84.10
2023-03-30T20:06:23.370Z,83.56
2023-03-30T20:08:50.594Z,83.95
2023-03-30T20:11:17.879Z,85.55
2023-03-30T20:13:49.142Z,86.37
2023-03-30T20:16:23.102Z,86.54
2023-03-30T20:18:54.572Z,85.99
2023-03-30T20:21:24.235Z,86.13
2023-03-30T20:23:51.634Z,86.41
2023-03-30T20:26:19.407Z,87.70
2023-03-30T20:28:47.339Z,87.64
2023-03-30T20:31:15.425Z,88.03
2023-03-30T20:33:42.923Z,88.88
2023-03-30T20:36:10.658Z,87.57
2023-03-30T20:38:39.631Z,85.86
2023-03-30T20:41:07.841Z,86.43
2023-03-30T20:46:16.533Z,88.59
2023-03-30T20:48:54.205Z,89.63
2023-03-30T20:51:23.585Z,90.17
2023-03-30T20:53:54.398Z,90.68
2023-03-30T20:56:22.020Z,92.33
2023-03-30T20:58:49.501Z,92.13
2023-03-30T21:01:25.561Z,91.47
2023-03-30T21:03:59.798Z,90.32
2023-03-30T21:06:31.304Z,90.39
2023-03-30T21:09:02.765Z,91.33
2023-03-30T21:11:33.594Z,92.69
2023-03-30T21:14:03.601Z,93.42
2023-03-30T21:16:30.978Z,94.82
2023-03-30T21:18:58.222Z,97.26
2023-03-30T21:21:25.295Z,98.04
2023-03-30T21:23:52.413Z,98.90
2023-03-30T21:26:21.778Z,98.00
2023-03-30T21:28:51.231Z,96.79
2023-03-30T21:31:22.905Z,96.67
2023-03-30T21:33:50.317Z,96.90
2023-03-30T21:36:17.570Z,96.36
2023-03-30T21:38:44.705Z,97.13
2023-03-30T21:41:18.347Z,96.33
2023-03-30T21:43:47.919Z,95.56
2023-03-30T21:46:19.547Z,94.33
2023-03-30T21:48:49.060Z,93.96
2023-03-30T21:51:24.540Z,93.49
2023-03-30T21:53:53.322Z,94.77
2023-03-30T21:56:23.493Z,95.09
2023-03-30T21:58:51.132Z,97.46
2023-03-30T22:01:23.719Z,99.56
2023-03-30T22:03:53.661Z,99.32
2023-03-30T22:06:24.016Z,100.00
2023-03-30T22:08:50.979Z,99.20
2023-03-30T22:11:25.169Z,100.00
2023-03-30T22:13:55.759Z,100.00
2023-03-30T22:16:32.218Z,100.00
2023-03-30T22:19:05.040Z,100.00
2023-03-30T22:21:35.692Z,100.00
2023-03-30T22:24:07.836Z,100.00
2023-03-30T22:26:38.660Z,100.00
2023-03-30T22:29:06.053Z,100.00
2023-03-30T22:31:33.706Z,100.00
2023-03-30T22:34:03.892Z,100.00
2023-03-30T22:36:31.561Z,100.00
2023-03-30T22:39:01.213Z,100.00
2023-03-30T22:41:28.558Z,100.00
2023-03-30T22:43:58.330Z,100.00
2023-03-30T22:46:28.253Z,100.00
2023-03-30T22:48:58.680Z,100.00
2023-03-30T22:51:34.244Z,100.00
2023-03-30T22:54:05.118Z,100.00
2023-03-30T22:56:32.089Z,100.00
2023-03-30T22:59:01.062Z,100.00
2023-03-30T23:01:32.535Z,100.00
2023-03-30T23:04:05.874Z,100.00
2023-03-30T23:06:36.727Z,100.00
2023-03-30T23:09:04.720Z,100.00
2023-03-30T23:11:34.945Z,100.00
2023-03-30T23:14:07.188Z,100.00
2023-03-30T23:16:39.991Z,100.00
2023-03-30T23:19:07.772Z,100.00
2023-03-30T23:21:34.810Z,100.00
2023-03-30T23:24:08.091Z,100.00
2023-03-30T23:26:35.567Z,100.00
2023-03-30T23:29:03.801Z,100.00
2023-03-30T23:31:34.561Z,100.00
2023-03-30T23:34:01.829Z,100.00
2023-03-30T23:36:28.860Z,100.00
2023-03-30T23:38:56.004Z,100.00
2023-03-30T23:41:24.302Z,100.00
2023-03-30T23:43:51.637Z,100.00
2023-03-30T23:46:19.910Z,100.00
2023-03-30T23:48:50.090Z,100.00
2023-03-30T23:51:17.188Z,100.00
2023-03-30T23:53:47.213Z,100.00
2023-03-30T23:56:17.376Z,100.00
2023-03-30T23:58:47.267Z,99.86
